sensor_id;sensor_type;location;lat;lon;timestamp;temperature;humidity
51837;DHT22;38941;53.254;6.600;2023-10-31T00:01:23;11.30;99.90
51837;DHT22;38941;53.254;6.600;2023-10-31T00:03:23;11.30;99.90
51837;DHT22;38941;53.254;6.600;2023-10-31T00:05:24;11.20;99.90
51837;DHT22;38941;53.254;6.600;2023-10-31T00:07:25;11.20;99.90
51837;DHT22;38941;53.254;6.600;2023-10-31T00:09:26;11.20;99.90
51837;DHT22;38941;53.254;6.600;2023-10-31T00:11:26;11.20;99.90
51837;DHT22;38941;53.254;6.600;2023-10-31T00:13:27;11.20;99.90
51837;DHT22;38941;53.254;6.600;2023-10-31T00:15:28;11.20;99.90
51837;DHT22;38941;53.254;6.600;2023-10-31T00:17:31;11.20;99.90
51837;DHT22;38941;53.254;6.600;2023-10-31T00:19:31;11.20;99.90
51837;DHT22;38941;53.254;6.600;2023-10-31T00:21:33;11.20;99.90
51837;DHT22;38941;53.254;6.600;2023-10-31T00:23:34;11.20;99.90
51837;DHT22;38941;53.254;6.600;2023-10-31T00:25:42;11.10;99.90
51837;DHT22;38941;53.254;6.600;2023-10-31T00:27:43;11.20;99.90
51837;DHT22;38941;53.254;6.600;2023-10-31T00:29:44;11.10;99.90
51837;DHT22;38941;53.254;6.600;2023-10-31T00:31:44;11.10;99.90
51837;DHT22;38941;53.254;6.600;2023-10-31T00:33:45;11.10;99.90
51837;DHT22;38941;53.254;6.600;2023-10-31T00:35:46;11.10;99.90
51837;DHT22;38941;53.254;6.600;2023-10-31T00:37:47;11.10;99.90
51837;DHT22;38941;53.254;6.600;2023-10-31T00:39:47;11.10;99.90
51837;DHT22;38941;53.254;6.600;2023-10-31T00:41:48;11.10;99.90
51837;DHT22;38941;53.254;6.600;2023-10-31T00:43:49;11.00;99.90
51837;DHT22;38941;53.254;6.600;2023-10-31T00:45:50;11.10;99.90
51837;DHT22;38941;53.254;6.600;2023-10-31T00:47:50;11.10;99.90
51837;DHT22;38941;53.254;6.600;2023-10-31T00:49:51;11.00;99.90
51837;DHT22;38941;53.254;6.600;2023-10-31T00:51:53;11.00;99.90
51837;DHT22;38941;53.254;6.600;2023-10-31T00:53:54;11.00;99.90
51837;DHT22;38941;53.254;6.600;2023-10-31T00:55:55;10.70;99.90
51837;DHT22;38941;53.254;6.600;2023-10-31T00:57:55;11.00;99.90
51837;DHT22;38941;53.254;6.600;2023-10-31T00:59:56;11.00;99.90
51837;DHT22;38941;53.254;6.600;2023-10-31T01:01:57;11.00;99.90
51837;DHT22;38941;53.254;6.600;2023-10-31T01:03:58;11.00;99.90
51837;DHT22;38941;53.254;6.600;2023-10-31T01:05:58;11.00;99.90
51837;DHT22;38941;53.254;6.600;2023-10-31T01:07:59;11.00;99.90
51837;DHT22;38941;53.254;6.600;2023-10-31T01:10:00;12.00;99.90
51837;DHT22;38941;53.254;6.600;2023-10-31T01:12:00;11.00;99.90
51837;DHT22;38941;53.254;6.600;2023-10-31T01:14:02;11.00;99.90
51837;DHT22;38941;53.254;6.600;2023-10-31T01:16:03;11.00;99.90
51837;DHT22;38941;53.254;6.600;2023-10-31T01:18:04;11.00;99.90
51837;DHT22;38941;53.254;6.600;2023-10-31T01:20:06;10.90;99.90
51837;DHT22;38941;53.254;6.600;2023-10-31T01:22:07;11.00;99.90
51837;DHT22;38941;53.254;6.600;2023-10-31T01:24:08;10.90;99.90
51837;DHT22;38941;53.254;6.600;2023-10-31T01:26:09;10.90;99.90
51837;DHT22;38941;53.254;6.600;2023-10-31T01:28:10;10.90;99.90
51837;DHT22;38941;53.254;6.600;2023-10-31T01:30:11;10.90;99.90
51837;DHT22;38941;53.254;6.600;2023-10-31T01:32:12;10.90;99.90
51837;DHT22;38941;53.254;6.600;2023-10-31T01:34:13;10.80;99.90
51837;DHT22;38941;53.254;6.600;2023-10-31T01:36:14;10.80;99.90
51837;DHT22;38941;53.254;6.600;2023-10-31T01:38:15;10.80;99.90
51837;DHT22;38941;53.254;6.600;2023-10-31T01:40:15;10.80;99.90
51837;DHT22;38941;53.254;6.600;2023-10-31T01:42:17;10.80;99.90
51837;DHT22;38941;53.254;6.600;2023-10-31T01:44:17;10.70;99.90
51837;DHT22;38941;53.254;6.600;2023-10-31T01:46:18;10.70;99.90
51837;DHT22;38941;53.254;6.600;2023-10-31T01:48:19;10.60;99.90
51837;DHT22;38941;53.254;6.600;2023-10-31T01:50:20;10.70;99.90
51837;DHT22;38941;53.254;6.600;2023-10-31T01:52:21;10.70;99.90
51837;DHT22;38941;53.254;6.600;2023-10-31T01:54:22;10.70;99.90
51837;DHT22;38941;53.254;6.600;2023-10-31T01:56:23;10.70;99.90
51837;DHT22;38941;53.254;6.600;2023-10-31T01:58:29;10.70;99.90
51837;DHT22;38941;53.254;6.600;2023-10-31T02:00:31;10.70;99.90
51837;DHT22;38941;53.254;6.600;2023-10-31T02:02:33;10.70;99.90
51837;DHT22;38941;53.254;6.600;2023-10-31T02:04:35;10.70;99.90
51837;DHT22;38941;53.254;6.600;2023-10-31T02:06:36;10.80;99.90
51837;DHT22;38941;53.254;6.600;2023-10-31T02:08:37;10.70;99.90
51837;DHT22;38941;53.254;6.600;2023-10-31T02:10:37;10.70;99.90
51837;DHT22;38941;53.254;6.600;2023-10-31T02:12:38;10.60;99.90
51837;DHT22;38941;53.254;6.600;2023-10-31T02:14:39;10.60;99.90
51837;DHT22;38941;53.254;6.600;2023-10-31T02:16:40;10.60;99.90
51837;DHT22;38941;53.254;6.600;2023-10-31T02:18:40;10.50;99.90
51837;DHT22;38941;53.254;6.600;2023-10-31T02:20:42;10.60;99.90
51837;DHT22;38941;53.254;6.600;2023-10-31T02:22:43;10.50;99.90
51837;DHT22;38941;53.254;6.600;2023-10-31T02:24:43;10.50;99.90
51837;DHT22;38941;53.254;6.600;2023-10-31T02:26:44;10.50;99.90
51837;DHT22;38941;53.254;6.600;2023-10-31T02:28:45;10.50;99.90
51837;DHT22;38941;53.254;6.600;2023-10-31T02:30:45;10.50;99.90
51837;DHT22;38941;53.254;6.600;2023-10-31T02:32:46;10.50;99.90
51837;DHT22;38941;53.254;6.600;2023-10-31T02:34:48;10.50;99.90
51837;DHT22;38941;53.254;6.600;2023-10-31T02:36:48;10.50;99.90
51837;DHT22;38941;53.254;6.600;2023-10-31T02:38:49;10.60;99.90
51837;DHT22;38941;53.254;6.600;2023-10-31T02:40:50;10.90;99.90
51837;DHT22;38941;53.254;6.600;2023-10-31T02:42:51;10.50;99.90
51837;DHT22;38941;53.254;6.600;2023-10-31T02:44:52;10.50;99.90
51837;DHT22;38941;53.254;6.600;2023-10-31T02:46:52;10.50;99.90
51837;DHT22;38941;53.254;6.600;2023-10-31T02:48:53;10.40;99.90
51837;DHT22;38941;53.254;6.600;2023-10-31T02:50:54;10.40;99.90
51837;DHT22;38941;53.254;6.600;2023-10-31T02:52:55;10.40;99.90
51837;DHT22;38941;53.254;6.600;2023-10-31T02:54:55;10.30;99.90
51837;DHT22;38941;53.254;6.600;2023-10-31T02:56:58;10.40;99.90
51837;DHT22;38941;53.254;6.600;2023-10-31T02:58:58;10.40;99.90
51837;DHT22;38941;53.254;6.600;2023-10-31T03:00:59;10.30;99.90
51837;DHT22;38941;53.254;6.600;2023-10-31T03:03:00;10.40;99.90
51837;DHT22;38941;53.254;6.600;2023-10-31T03:05:00;10.40;99.90
51837;DHT22;38941;53.254;6.600;2023-10-31T03:07:02;10.80;99.90
51837;DHT22;38941;53.254;6.600;2023-10-31T03:09:03;10.30;99.90
51837;DHT22;38941;53.254;6.600;2023-10-31T03:11:04;10.30;99.90
51837;DHT22;38941;53.254;6.600;2023-10-31T03:13:05;10.30;99.90
51837;DHT22;38941;53.254;6.600;2023-10-31T03:15:06;10.30;99.90
51837;DHT22;38941;53.254;6.600;2023-10-31T03:17:07;10.30;99.90
51837;DHT22;38941;53.254;6.600;2023-10-31T03:19:08;10.30;99.90
51837;DHT22;38941;53.254;6.600;2023-10-31T03:21:09;10.30;99.90
51837;DHT22;38941;53.254;6.600;2023-10-31T03:23:10;10.30;99.90
51837;DHT22;38941;53.254;6.600;2023-10-31T03:25:11;10.30;99.90
51837;DHT22;38941;53.254;6.600;2023-10-31T03:27:12;10.30;99.90
51837;DHT22;38941;53.254;6.600;2023-10-31T03:29:12;10.30;99.90
51837;DHT22;38941;53.254;6.600;2023-10-31T03:31:14;10.30;99.90
51837;DHT22;38941;53.254;6.600;2023-10-31T03:33:15;10.20;99.90
51837;DHT22;38941;53.254;6.600;2023-10-31T03:35:19;10.20;99.90
51837;DHT22;38941;53.254;6.600;2023-10-31T03:37:19;10.20;99.90
51837;DHT22;38941;53.254;6.600;2023-10-31T03:39:20;10.10;99.90
51837;DHT22;38941;53.254;6.600;2023-10-31T03:41:21;10.20;99.90
51837;DHT22;38941;53.254;6.600;2023-10-31T03:43:22;10.50;99.90
51837;DHT22;38941;53.254;6.600;2023-10-31T03:45:22;10.20;99.90
51837;DHT22;38941;53.254;6.600;2023-10-31T03:47:23;10.20;99.90
51837;DHT22;38941;53.254;6.600;2023-10-31T03:49:24;10.20;99.90
51837;DHT22;38941;53.254;6.600;2023-10-31T03:51:25;10.20;99.90
51837;DHT22;38941;53.254;6.600;2023-10-31T03:53:25;10.20;99.90
51837;DHT22;38941;53.254;6.600;2023-10-31T03:55:26;10.20;99.90
51837;DHT22;38941;53.254;6.600;2023-10-31T03:57:27;10.20;99.90
51837;DHT22;38941;53.254;6.600;2023-10-31T03:59:28;10.20;99.90
51837;DHT22;38941;53.254;6.600;2023-10-31T04:01:28;10.20;99.90
51837;DHT22;38941;53.254;6.600;2023-10-31T04:03:29;10.20;99.90
51837;DHT22;38941;53.254;6.600;2023-10-31T04:05:30;10.20;99.90
51837;DHT22;38941;53.254;6.600;2023-10-31T04:07:30;10.20;99.90
51837;DHT22;38941;53.254;6.600;2023-10-31T04:09:31;10.30;99.90
51837;DHT22;38941;53.254;6.600;2023-10-31T04:11:32;10.30;99.90
51837;DHT22;38941;53.254;6.600;2023-10-31T04:13:33;10.30;99.90
51837;DHT22;38941;53.254;6.600;2023-10-31T04:15:33;10.30;99.90
51837;DHT22;38941;53.254;6.600;2023-10-31T04:17:35;10.30;99.90
51837;DHT22;38941;53.254;6.600;2023-10-31T04:19:39;10.30;99.90
51837;DHT22;38941;53.254;6.600;2023-10-31T04:21:40;10.30;99.90
51837;DHT22;38941;53.254;6.600;2023-10-31T04:23:41;10.30;99.90
51837;DHT22;38941;53.254;6.600;2023-10-31T04:25:42;10.30;99.90
51837;DHT22;38941;53.254;6.600;2023-10-31T04:27:43;10.30;99.90
51837;DHT22;38941;53.254;6.600;2023-10-31T04:29:45;10.30;99.90
51837;DHT22;38941;53.254;6.600;2023-10-31T04:31:45;10.30;99.90
51837;DHT22;38941;53.254;6.600;2023-10-31T04:33:46;10.30;99.90
51837;DHT22;38941;53.254;6.600;2023-10-31T04:35:47;10.30;99.90
51837;DHT22;38941;53.254;6.600;2023-10-31T04:37:48;10.60;99.90
51837;DHT22;38941;53.254;6.600;2023-10-31T04:39:48;10.30;99.90
51837;DHT22;38941;53.254;6.600;2023-10-31T04:41:49;10.30;99.90
51837;DHT22;38941;53.254;6.600;2023-10-31T04:43:50;10.20;99.90
51837;DHT22;38941;53.254;6.600;2023-10-31T04:45:50;10.30;99.90
51837;DHT22;38941;53.254;6.600;2023-10-31T04:47:51;10.30;99.90
51837;DHT22;38941;53.254;6.600;2023-10-31T04:49:52;10.30;99.90
51837;DHT22;38941;53.254;6.600;2023-10-31T04:51:53;10.30;99.90
51837;DHT22;38941;53.254;6.600;2023-10-31T04:53:53;10.20;99.90
51837;DHT22;38941;53.254;6.600;2023-10-31T04:55:54;10.20;99.90
51837;DHT22;38941;53.254;6.600;2023-10-31T04:57:55;10.20;99.90
51837;DHT22;38941;53.254;6.600;2023-10-31T04:59:56;10.10;99.90
51837;DHT22;38941;53.254;6.600;2023-10-31T05:01:58;10.70;99.90
51837;DHT22;38941;53.254;6.600;2023-10-31T05:03:58;10.20;99.90
51837;DHT22;38941;53.254;6.600;2023-10-31T05:06:00;10.20;99.90
51837;DHT22;38941;53.254;6.600;2023-10-31T05:08:01;10.20;99.90
51837;DHT22;38941;53.254;6.600;2023-10-31T05:10:02;10.20;99.90
51837;DHT22;38941;53.254;6.600;2023-10-31T05:12:03;10.20;99.90
51837;DHT22;38941;53.254;6.600;2023-10-31T05:14:04;10.20;99.90
51837;DHT22;38941;53.254;6.600;2023-10-31T05:16:05;10.20;99.90
51837;DHT22;38941;53.254;6.600;2023-10-31T05:18:06;10.20;99.90
51837;DHT22;38941;53.254;6.600;2023-10-31T05:20:07;10.20;99.90
51837;DHT22;38941;53.254;6.600;2023-10-31T05:22:09;10.20;99.90
51837;DHT22;38941;53.254;6.600;2023-10-31T05:24:11;10.30;99.90
51837;DHT22;38941;53.254;6.600;2023-10-31T05:26:11;10.20;99.90
51837;DHT22;38941;53.254;6.600;2023-10-31T05:28:12;11.00;99.90
51837;DHT22;38941;53.254;6.600;2023-10-31T05:30:13;10.20;99.90
51837;DHT22;38941;53.254;6.600;2023-10-31T05:32:14;10.20;99.90
51837;DHT22;38941;53.254;6.600;2023-10-31T05:34:15;10.20;99.90
51837;DHT22;38941;53.254;6.600;2023-10-31T05:36:23;10.20;99.90
51837;DHT22;38941;53.254;6.600;2023-10-31T05:38:24;10.20;99.90
51837;DHT22;38941;53.254;6.600;2023-10-31T05:40:25;10.20;99.90
51837;DHT22;38941;53.254;6.600;2023-10-31T05:42:27;10.30;99.90
51837;DHT22;38941;53.254;6.600;2023-10-31T05:44:28;10.20;99.90
51837;DHT22;38941;53.254;6.600;2023-10-31T05:46:29;10.20;99.90
51837;DHT22;38941;53.254;6.600;2023-10-31T05:48:31;10.20;99.90
51837;DHT22;38941;53.254;6.600;2023-10-31T05:50:32;10.20;99.90
51837;DHT22;38941;53.254;6.600;2023-10-31T05:52:33;10.20;99.90
51837;DHT22;38941;53.254;6.600;2023-10-31T05:54:33;10.30;99.90
51837;DHT22;38941;53.254;6.600;2023-10-31T05:56:34;10.20;99.90
51837;DHT22;38941;53.254;6.600;2023-10-31T05:58:36;10.20;99.90
51837;DHT22;38941;53.254;6.600;2023-10-31T06:00:37;10.10;99.90
51837;DHT22;38941;53.254;6.600;2023-10-31T06:02:38;10.20;99.90
51837;DHT22;38941;53.254;6.600;2023-10-31T06:04:39;10.20;99.90
51837;DHT22;38941;53.254;6.600;2023-10-31T06:06:40;10.20;99.90
51837;DHT22;38941;53.254;6.600;2023-10-31T06:08:41;10.20;99.90
51837;DHT22;38941;53.254;6.600;2023-10-31T06:10:42;10.10;99.90
51837;DHT22;38941;53.254;6.600;2023-10-31T06:12:43;10.10;99.90
51837;DHT22;38941;53.254;6.600;2023-10-31T06:14:43;10.10;99.90
51837;DHT22;38941;53.254;6.600;2023-10-31T06:16:44;10.10;99.90
51837;DHT22;38941;53.254;6.600;2023-10-31T06:18:45;10.10;99.90
51837;DHT22;38941;53.254;6.600;2023-10-31T06:20:46;10.10;99.90
51837;DHT22;38941;53.254;6.600;2023-10-31T06:22:47;10.10;99.90
51837;DHT22;38941;53.254;6.600;2023-10-31T06:24:48;11.10;99.90
51837;DHT22;38941;53.254;6.600;2023-10-31T06:26:48;10.20;99.90
51837;DHT22;38941;53.254;6.600;2023-10-31T06:28:49;10.20;99.90
51837;DHT22;38941;53.254;6.600;2023-10-31T06:30:50;10.10;99.90
51837;DHT22;38941;53.254;6.600;2023-10-31T06:32:52;10.20;99.90
51837;DHT22;38941;53.254;6.600;2023-10-31T06:34:53;10.20;99.90
51837;DHT22;38941;53.254;6.600;2023-10-31T06:36:54;10.20;99.90
51837;DHT22;38941;53.254;6.600;2023-10-31T06:38:55;10.20;99.90
51837;DHT22;38941;53.254;6.600;2023-10-31T06:40:56;9.00;99.90
51837;DHT22;38941;53.254;6.600;2023-10-31T06:42:57;10.20;99.90
51837;DHT22;38941;53.254;6.600;2023-10-31T06:44:58;10.10;99.90
51837;DHT22;38941;53.254;6.600;2023-10-31T06:46:59;10.20;99.90
51837;DHT22;38941;53.254;6.600;2023-10-31T06:49:00;10.20;99.90
51837;DHT22;38941;53.254;6.600;2023-10-31T06:51:00;10.20;99.90
51837;DHT22;38941;53.254;6.600;2023-10-31T06:53:01;10.20;99.90
51837;DHT22;38941;53.254;6.600;2023-10-31T06:55:02;10.20;99.90
51837;DHT22;38941;53.254;6.600;2023-10-31T06:57:03;10.20;99.90
51837;DHT22;38941;53.254;6.600;2023-10-31T06:59:04;10.30;99.90
51837;DHT22;38941;53.254;6.600;2023-10-31T07:01:05;10.30;99.90
51837;DHT22;38941;53.254;6.600;2023-10-31T07:03:06;10.30;99.90
51837;DHT22;38941;53.254;6.600;2023-10-31T07:05:09;10.30;99.90
51837;DHT22;38941;53.254;6.600;2023-10-31T07:07:10;10.30;99.90
51837;DHT22;38941;53.254;6.600;2023-10-31T07:09:11;10.40;99.90
51837;DHT22;38941;53.254;6.600;2023-10-31T07:11:12;10.30;99.90
51837;DHT22;38941;53.254;6.600;2023-10-31T07:13:12;10.50;99.90
51837;DHT22;38941;53.254;6.600;2023-10-31T07:15:13;10.30;99.90
51837;DHT22;38941;53.254;6.600;2023-10-31T07:17:14;10.30;99.90
51837;DHT22;38941;53.254;6.600;2023-10-31T07:19:15;10.30;99.90
51837;DHT22;38941;53.254;6.600;2023-10-31T07:21:16;10.30;99.90
51837;DHT22;38941;53.254;6.600;2023-10-31T07:23:17;11.30;99.90
51837;DHT22;38941;53.254;6.600;2023-10-31T07:25:18;10.30;99.90
51837;DHT22;38941;53.254;6.600;2023-10-31T07:27:18;10.30;99.90
51837;DHT22;38941;53.254;6.600;2023-10-31T07:29:19;10.30;99.90
51837;DHT22;38941;53.254;6.600;2023-10-31T07:31:20;10.30;99.90
51837;DHT22;38941;53.254;6.600;2023-10-31T07:33:21;10.40;99.90
51837;DHT22;38941;53.254;6.600;2023-10-31T07:35:21;10.30;99.90
51837;DHT22;38941;53.254;6.600;2023-10-31T07:37:22;10.40;99.90
51837;DHT22;38941;53.254;6.600;2023-10-31T07:39:23;10.90;99.90
51837;DHT22;38941;53.254;6.600;2023-10-31T07:41:24;10.40;99.90
51837;DHT22;38941;53.254;6.600;2023-10-31T07:43:25;10.40;99.90
51837;DHT22;38941;53.254;6.600;2023-10-31T07:45:26;10.50;99.90
51837;DHT22;38941;53.254;6.600;2023-10-31T07:47:26;10.50;99.90
51837;DHT22;38941;53.254;6.600;2023-10-31T07:49:27;10.90;99.90
51837;DHT22;38941;53.254;6.600;2023-10-31T07:51:28;10.50;99.90
51837;DHT22;38941;53.254;6.600;2023-10-31T07:53:29;10.50;99.90
51837;DHT22;38941;53.254;6.600;2023-10-31T07:55:30;10.50;99.90
51837;DHT22;38941;53.254;6.600;2023-10-31T07:57:31;10.60;99.90
51837;DHT22;38941;53.254;6.600;2023-10-31T07:59:35;10.60;99.90
51837;DHT22;38941;53.254;6.600;2023-10-31T08:01:36;11.40;99.90
51837;DHT22;38941;53.254;6.600;2023-10-31T08:03:37;10.60;99.90
51837;DHT22;38941;53.254;6.600;2023-10-31T08:05:39;10.60;99.90
51837;DHT22;38941;53.254;6.600;2023-10-31T08:07:40;10.70;99.90
51837;DHT22;38941;53.254;6.600;2023-10-31T08:09:41;10.70;99.90
51837;DHT22;38941;53.254;6.600;2023-10-31T08:11:42;10.70;99.90
51837;DHT22;38941;53.254;6.600;2023-10-31T08:13:43;10.80;99.90
51837;DHT22;38941;53.254;6.600;2023-10-31T08:15:43;10.70;99.90
51837;DHT22;38941;53.254;6.600;2023-10-31T08:17:44;10.80;99.90
51837;DHT22;38941;53.254;6.600;2023-10-31T08:19:45;10.90;99.90
51837;DHT22;38941;53.254;6.600;2023-10-31T08:21:47;10.90;99.90
51837;DHT22;38941;53.254;6.600;2023-10-31T08:23:48;11.00;99.90
51837;DHT22;38941;53.254;6.600;2023-10-31T08:25:48;11.00;99.90
51837;DHT22;38941;53.254;6.600;2023-10-31T08:27:51;11.10;99.90
51837;DHT22;38941;53.254;6.600;2023-10-31T08:29:51;11.10;99.90
51837;DHT22;38941;53.254;6.600;2023-10-31T08:31:52;11.20;99.90
51837;DHT22;38941;53.254;6.600;2023-10-31T08:33:53;11.20;99.90
51837;DHT22;38941;53.254;6.600;2023-10-31T08:35:54;11.20;99.90
51837;DHT22;38941;53.254;6.600;2023-10-31T08:37:55;11.30;99.90
51837;DHT22;38941;53.254;6.600;2023-10-31T08:39:56;11.20;99.90
51837;DHT22;38941;53.254;6.600;2023-10-31T08:41:57;11.30;99.90
51837;DHT22;38941;53.254;6.600;2023-10-31T08:43:58;11.40;99.90
51837;DHT22;38941;53.254;6.600;2023-10-31T08:46:03;11.40;99.90
51837;DHT22;38941;53.254;6.600;2023-10-31T08:48:04;11.50;99.90
51837;DHT22;38941;53.254;6.600;2023-10-31T08:50:05;11.50;99.90
51837;DHT22;38941;53.254;6.600;2023-10-31T08:52:08;11.60;99.90
51837;DHT22;38941;53.254;6.600;2023-10-31T08:54:10;11.60;99.90
51837;DHT22;38941;53.254;6.600;2023-10-31T08:56:12;11.60;99.90
51837;DHT22;38941;53.254;6.600;2023-10-31T08:58:13;11.70;99.90
51837;DHT22;38941;53.254;6.600;2023-10-31T09:00:14;11.70;99.90
51837;DHT22;38941;53.254;6.600;2023-10-31T09:02:15;11.60;99.90
51837;DHT22;38941;53.254;6.600;2023-10-31T09:04:16;11.60;99.90
51837;DHT22;38941;53.254;6.600;2023-10-31T09:06:18;11.70;99.90
51837;DHT22;38941;53.254;6.600;2023-10-31T09:08:19;11.50;99.90
51837;DHT22;38941;53.254;6.600;2023-10-31T09:10:19;11.50;99.90
51837;DHT22;38941;53.254;6.600;2023-10-31T09:12:20;11.40;99.90
51837;DHT22;38941;53.254;6.600;2023-10-31T09:14:21;11.40;99.90
51837;DHT22;38941;53.254;6.600;2023-10-31T09:16:21;11.40;99.90
51837;DHT22;38941;53.254;6.600;2023-10-31T09:18:22;11.40;99.90
51837;DHT22;38941;53.254;6.600;2023-10-31T09:20:23;11.30;99.90
51837;DHT22;38941;53.254;6.600;2023-10-31T09:22:24;11.30;99.90
51837;DHT22;38941;53.254;6.600;2023-10-31T09:24:28;11.30;99.90
51837;DHT22;38941;53.254;6.600;2023-10-31T09:26:28;11.30;99.90
51837;DHT22;38941;53.254;6.600;2023-10-31T09:28:29;11.40;99.90
51837;DHT22;38941;53.254;6.600;2023-10-31T09:30:30;11.30;99.90
51837;DHT22;38941;53.254;6.600;2023-10-31T09:32:30;11.20;99.90
51837;DHT22;38941;53.254;6.600;2023-10-31T09:34:31;11.20;99.90
51837;DHT22;38941;53.254;6.600;2023-10-31T09:36:32;11.40;99.90
51837;DHT22;38941;53.254;6.600;2023-10-31T09:38:36;11.20;99.90
51837;DHT22;38941;53.254;6.600;2023-10-31T09:40:38;11.20;99.90
51837;DHT22;38941;53.254;6.600;2023-10-31T09:42:40;11.20;99.90
51837;DHT22;38941;53.254;6.600;2023-10-31T09:44:40;11.30;99.90
51837;DHT22;38941;53.254;6.600;2023-10-31T09:46:41;11.30;99.90
51837;DHT22;38941;53.254;6.600;2023-10-31T09:48:42;11.50;99.90
51837;DHT22;38941;53.254;6.600;2023-10-31T09:50:44;11.80;99.90
51837;DHT22;38941;53.254;6.600;2023-10-31T09:52:45;11.90;99.90
51837;DHT22;38941;53.254;6.600;2023-10-31T09:54:48;12.20;99.90
51837;DHT22;38941;53.254;6.600;2023-10-31T09:56:49;12.30;99.90
51837;DHT22;38941;53.254;6.600;2023-10-31T09:58:52;12.70;99.90
51837;DHT22;38941;53.254;6.600;2023-10-31T10:00:52;12.80;99.90
51837;DHT22;38941;53.254;6.600;2023-10-31T10:02:54;13.10;99.90
51837;DHT22;38941;53.254;6.600;2023-10-31T10:04:55;13.40;99.90
51837;DHT22;38941;53.254;6.600;2023-10-31T10:07:03;13.60;99.90
51837;DHT22;38941;53.254;6.600;2023-10-31T10:09:04;13.80;99.90
51837;DHT22;38941;53.254;6.600;2023-10-31T10:11:07;14.10;99.90
51837;DHT22;38941;53.254;6.600;2023-10-31T10:13:08;14.30;99.90
51837;DHT22;38941;53.254;6.600;2023-10-31T10:15:10;14.50;99.90
51837;DHT22;38941;53.254;6.600;2023-10-31T10:17:16;14.70;99.90
51837;DHT22;38941;53.254;6.600;2023-10-31T10:19:20;14.80;99.90
51837;DHT22;38941;53.254;6.600;2023-10-31T10:21:21;14.70;99.90
51837;DHT22;38941;53.254;6.600;2023-10-31T10:23:22;14.60;99.90
51837;DHT22;38941;53.254;6.600;2023-10-31T10:25:23;14.40;99.90
51837;DHT22;38941;53.254;6.600;2023-10-31T10:27:24;14.20;99.90
51837;DHT22;38941;53.254;6.600;2023-10-31T10:29:24;14.10;99.90
51837;DHT22;38941;53.254;6.600;2023-10-31T10:31:26;14.00;99.90
51837;DHT22;38941;53.254;6.600;2023-10-31T10:33:27;15.30;99.90
51837;DHT22;38941;53.254;6.600;2023-10-31T10:35:28;14.00;99.90
51837;DHT22;38941;53.254;6.600;2023-10-31T10:37:29;13.80;99.90
51837;DHT22;38941;53.254;6.600;2023-10-31T10:39:32;14.00;99.90
51837;DHT22;38941;53.254;6.600;2023-10-31T10:41:35;14.50;99.90
51837;DHT22;38941;53.254;6.600;2023-10-31T10:43:39;14.80;99.90
51837;DHT22;38941;53.254;6.600;2023-10-31T10:45:43;15.20;99.90
51837;DHT22;38941;53.254;6.600;2023-10-31T10:47:50;15.30;99.90
51837;DHT22;38941;53.254;6.600;2023-10-31T10:49:54;15.50;99.90
51837;DHT22;38941;53.254;6.600;2023-10-31T10:51:59;15.50;99.90
51837;DHT22;38941;53.254;6.600;2023-10-31T10:54:09;15.60;99.90
51837;DHT22;38941;53.254;6.600;2023-10-31T10:56:19;15.60;99.90
51837;DHT22;38941;53.254;6.600;2023-10-31T10:58:33;15.50;99.90
51837;DHT22;38941;53.254;6.600;2023-10-31T11:00:35;15.30;99.90
51837;DHT22;38941;53.254;6.600;2023-10-31T11:02:39;15.20;99.90
51837;DHT22;38941;53.254;6.600;2023-10-31T11:04:43;15.30;99.90
51837;DHT22;38941;53.254;6.600;2023-10-31T11:06:45;15.50;99.90
51837;DHT22;38941;53.254;6.600;2023-10-31T11:08:47;15.60;99.90
51837;DHT22;38941;53.254;6.600;2023-10-31T11:10:48;15.60;99.90
51837;DHT22;38941;53.254;6.600;2023-10-31T11:12:50;15.70;99.90
51837;DHT22;38941;53.254;6.600;2023-10-31T11:14:51;15.60;99.90
51837;DHT22;38941;53.254;6.600;2023-10-31T11:16:55;15.50;99.90
51837;DHT22;38941;53.254;6.600;2023-10-31T11:18:57;15.20;99.90
51837;DHT22;38941;53.254;6.600;2023-10-31T11:20:57;15.10;99.90
51837;DHT22;38941;53.254;6.600;2023-10-31T11:22:58;15.10;99.90
51837;DHT22;38941;53.254;6.600;2023-10-31T11:25:00;15.20;99.90
51837;DHT22;38941;53.254;6.600;2023-10-31T11:27:03;15.30;99.90
51837;DHT22;38941;53.254;6.600;2023-10-31T11:29:05;15.40;99.90
51837;DHT22;38941;53.254;6.600;2023-10-31T11:31:08;15.60;99.90
51837;DHT22;38941;53.254;6.600;2023-10-31T11:33:13;15.60;99.90
51837;DHT22;38941;53.254;6.600;2023-10-31T11:35:16;15.70;99.90
51837;DHT22;38941;53.254;6.600;2023-10-31T11:37:25;16.60;99.90
51837;DHT22;38941;53.254;6.600;2023-10-31T11:39:28;15.70;99.90
51837;DHT22;38941;53.254;6.600;2023-10-31T11:41:35;15.70;99.90
51837;DHT22;38941;53.254;6.600;2023-10-31T11:45:40;15.80;99.90
51837;DHT22;38941;53.254;6.600;2023-10-31T11:47:51;15.80;99.90
51837;DHT22;38941;53.254;6.600;2023-10-31T11:49:51;15.80;99.90
51837;DHT22;38941;53.254;6.600;2023-10-31T11:51:53;15.70;99.90
51837;DHT22;38941;53.254;6.600;2023-10-31T11:53:54;15.70;99.90
51837;DHT22;38941;53.254;6.600;2023-10-31T11:55:55;15.80;99.90
51837;DHT22;38941;53.254;6.600;2023-10-31T11:57:57;15.70;99.90
51837;DHT22;38941;53.254;6.600;2023-10-31T11:59:57;15.60;99.90
51837;DHT22;38941;53.254;6.600;2023-10-31T12:01:58;15.40;99.90
51837;DHT22;38941;53.254;6.600;2023-10-31T12:04:00;15.20;99.90
51837;DHT22;38941;53.254;6.600;2023-10-31T12:06:00;15.00;99.90
51837;DHT22;38941;53.254;6.600;2023-10-31T12:08:01;14.80;99.90
51837;DHT22;38941;53.254;6.600;2023-10-31T12:10:02;14.80;99.90
51837;DHT22;38941;53.254;6.600;2023-10-31T12:12:03;14.80;99.90
51837;DHT22;38941;53.254;6.600;2023-10-31T12:14:04;14.80;99.90
51837;DHT22;38941;53.254;6.600;2023-10-31T12:16:07;14.80;99.90
51837;DHT22;38941;53.254;6.600;2023-10-31T12:18:08;14.80;99.90
51837;DHT22;38941;53.254;6.600;2023-10-31T12:20:09;14.80;99.90
51837;DHT22;38941;53.254;6.600;2023-10-31T12:22:14;14.80;99.90
51837;DHT22;38941;53.254;6.600;2023-10-31T12:24:17;13.60;99.90
51837;DHT22;38941;53.254;6.600;2023-10-31T12:26:21;14.60;99.90
51837;DHT22;38941;53.254;6.600;2023-10-31T12:28:23;14.50;99.90
51837;DHT22;38941;53.254;6.600;2023-10-31T12:30:24;14.40;99.90
51837;DHT22;38941;53.254;6.600;2023-10-31T12:32:25;14.20;99.90
51837;DHT22;38941;53.254;6.600;2023-10-31T12:34:26;14.20;99.90
51837;DHT22;38941;53.254;6.600;2023-10-31T12:36:27;14.10;99.90
51837;DHT22;38941;53.254;6.600;2023-10-31T12:38:28;14.00;99.90
51837;DHT22;38941;53.254;6.600;2023-10-31T12:40:29;13.90;99.90
51837;DHT22;38941;53.254;6.600;2023-10-31T12:42:33;13.80;99.90
51837;DHT22;38941;53.254;6.600;2023-10-31T12:44:34;13.80;99.90
51837;DHT22;38941;53.254;6.600;2023-10-31T12:46:39;13.70;99.90
51837;DHT22;38941;53.254;6.600;2023-10-31T12:48:40;13.60;99.90